createdAt,value
2023-05-04T00:04:43.105Z,101174.63
2023-05-04T00:09:39.552Z,101173.06
2023-05-04T00:14:37.331Z,101168.25
2023-05-04T00:19:34.859Z,101163.91
2023-05-04T00:24:31.242Z,101164.91
2023-05-04T00:29:27.660Z,101161.72
2023-05-04T00:34:24.045Z,101159.69
2023-05-04T00:39:20.470Z,101154.72
2023-05-04T00:44:16.865Z,101149.88
2023-05-04T00:49:13.491Z,101140.31
2023-05-04T00:54:09.906Z,101136.94
2023-05-04T00:59:06.339Z,101131.16
2023-05-04T01:04:02.911Z,101119.31
2023-05-04T01:09:11.151Z,101121.34
2023-05-04T01:14:09.976Z,101118.47
2023-05-04T01:19:06.389Z,101111.25
2023-05-04T01:24:02.842Z,101120.47
2023-05-04T01:29:08.869Z,101116.50
2023-05-04T01:34:07.400Z,101110.66
2023-05-04T01:39:03.986Z,101105.75
2023-05-04T01:44:00.378Z,101123.53
2023-05-04T01:48:57.809Z,101109.81
2023-05-04T01:53:54.250Z,101122.25
2023-05-04T01:58:50.729Z,101119.69
2023-05-04T02:03:47.234Z,101120.59
2023-05-04T02:08:44.016Z,101109.28
2023-05-04T02:13:40.575Z,101116.41
2023-05-04T02:18:37.311Z,101106.13
2023-05-04T02:23:33.672Z,101106.13
2023-05-04T02:28:30.102Z,101108.00
2023-05-04T02:33:26.585Z,101094.31
2023-05-04T02:38:22.989Z,101104.00
2023-05-04T02:43:19.359Z,101093.66
2023-05-04T02:48:15.745Z,101095.66
2023-05-04T02:53:12.128Z,101094.16
2023-05-04T02:58:08.541Z,101095.28
2023-05-04T03:03:05.042Z,101090.31
2023-05-04T03:08:01.434Z,101082.75
2023-05-04T03:12:58.250Z,101079.81
2023-05-04T03:17:54.649Z,101076.31
2023-05-04T03:22:51.124Z,101072.03
2023-05-04T03:27:47.504Z,101069.59
2023-05-04T03:32:44.841Z,101062.63
2023-05-04T03:37:41.451Z,101062.75
2023-05-04T03:42:38.141Z,101052.91
2023-05-04T03:47:34.579Z,101050.28
2023-05-04T03:52:31.023Z,101053.22
2023-05-04T03:57:27.417Z,101055.56
2023-05-04T04:02:23.869Z,101046.06
2023-05-04T04:07:20.589Z,101044.50
2023-05-04T04:12:18.423Z,101031.09
2023-05-04T04:17:15.342Z,101031.81
2023-05-04T04:22:11.716Z,101036.22
2023-05-04T04:27:08.175Z,101032.94
2023-05-04T04:32:04.797Z,101036.94
2023-05-04T04:37:01.205Z,101036.47
2023-05-04T04:41:57.594Z,101041.88
2023-05-04T04:46:54.022Z,101035.00
2023-05-04T04:51:50.454Z,101035.09
2023-05-04T04:56:46.831Z,101041.00
2023-05-04T05:01:43.160Z,101040.28
2023-05-04T05:06:39.506Z,101024.59
2023-05-04T05:11:35.874Z,101027.09
2023-05-04T05:16:32.761Z,101037.13
2023-05-04T05:21:29.857Z,101031.63
2023-05-04T05:26:26.214Z,101031.13
2023-05-04T05:31:22.770Z,101046.22
2023-05-04T05:36:19.182Z,101036.38
2023-05-04T05:41:16.138Z,101031.31
2023-05-04T05:46:13.577Z,101031.88
2023-05-04T05:51:10.059Z,101034.38
2023-05-04T05:56:06.689Z,101028.53
2023-05-04T06:01:03.571Z,101036.19
2023-05-04T06:06:00.023Z,101027.19
2023-05-04T06:10:56.420Z,101027.09
2023-05-04T06:15:56.095Z,101023.28
2023-05-04T06:20:59.290Z,101029.38
2023-05-04T06:25:55.633Z,101015.59
2023-05-04T06:30:51.973Z,101017.00
2023-05-04T06:35:48.333Z,101012.44
2023-05-04T06:40:44.878Z,101017.88
2023-05-04T06:45:41.382Z,101003.28
2023-05-04T06:50:39.416Z,100996.72
2023-05-04T06:55:37.067Z,100988.47
2023-05-04T07:00:33.604Z,100993.88
2023-05-04T07:05:30.069Z,100998.88
2023-05-04T07:10:26.537Z,100996.09
2023-05-04T07:15:23.040Z,100981.72
2023-05-04T07:20:22.972Z,100980.25
2023-05-04T07:25:21.616Z,100971.63
2023-05-04T07:30:18.020Z,100973.06
2023-05-04T07:35:15.087Z,100971.19
2023-05-04T07:40:14.041Z,100978.19
2023-05-04T07:45:10.761Z,100969.06
2023-05-04T07:50:08.098Z,100967.13
2023-05-04T07:55:04.852Z,100970.50
2023-05-04T08:00:01.717Z,100973.06
2023-05-04T08:04:58.197Z,100973.94
2023-05-04T08:09:56.110Z,100968.88
2023-05-04T08:14:52.673Z,100958.94
2023-05-04T08:19:49.367Z,100958.41
2023-05-04T08:24:47.701Z,100941.75
2023-05-04T08:29:44.108Z,100935.59
2023-05-04T08:34:40.524Z,100935.56
2023-05-04T08:39:38.347Z,100934.44
2023-05-04T08:44:36.461Z,100928.91
2023-05-04T08:49:32.957Z,100934.97
2023-05-04T08:54:29.926Z,100923.75
2023-05-04T08:59:28.983Z,100931.94
2023-05-04T09:04:29.352Z,100919.50
2023-05-04T09:09:28.204Z,100926.31
2023-05-04T09:14:33.054Z,100920.31
2023-05-04T09:19:33.672Z,100925.03
2023-05-04T09:24:30.561Z,100903.31
2023-05-04T09:29:26.900Z,100903.53
2023-05-04T09:34:23.731Z,100903.38
2023-05-04T09:39:20.956Z,100899.94
2023-05-04T09:44:23.072Z,100890.75
2023-05-04T09:49:21.232Z,100884.50
2023-05-04T09:54:18.812Z,100869.66
2023-05-04T09:59:15.809Z,100869.44
2023-05-04T10:04:13.007Z,100874.63
2023-05-04T10:09:10.519Z,100865.91
2023-05-04T10:14:08.406Z,100859.88
2023-05-04T10:19:30.097Z,100864.44
2023-05-04T10:24:47.283Z,100848.63
2023-05-04T10:29:49.452Z,100836.16
2023-05-04T10:34:45.876Z,100826.06
2023-05-04T10:39:51.234Z,100832.38
2023-05-04T10:44:53.373Z,100821.97
2023-05-04T10:50:01.265Z,100808.97
2023-05-04T10:55:00.784Z,100797.94
2023-05-04T10:59:58.557Z,100778.19
2023-05-04T11:05:04.156Z,100767.41
2023-05-04T11:10:01.406Z,100761.31
2023-05-04T11:15:10.632Z,100757.59
2023-05-04T11:20:07.924Z,100747.06
2023-05-04T11:25:05.036Z,100743.03
2023-05-04T11:30:03.095Z,100743.88
2023-05-04T11:34:59.443Z,100749.97
2023-05-04T11:39:56.753Z,100740.38
2023-05-04T11:44:54.658Z,100725.41
2023-05-04T11:49:51.220Z,100728.78
2023-05-04T11:54:56.803Z,100719.06
2023-05-04T11:59:53.207Z,100707.84
2023-05-04T12:04:49.819Z,100708.31
2023-05-04T12:09:49.776Z,100696.97
2023-05-04T12:14:50.251Z,100678.97
2023-05-04T12:19:54.233Z,100693.69
2023-05-04T12:24:51.059Z,100685.88
2023-05-04T12:29:47.404Z,100687.44
2023-05-04T12:34:43.729Z,100679.38
2023-05-04T12:39:40.235Z,100670.63
2023-05-04T12:44:36.777Z,100663.97
2023-05-04T12:49:33.124Z,100667.53
2023-05-04T12:54:29.459Z,100653.69
2023-05-04T12:59:26.480Z,100651.63
2023-05-04T13:04:23.643Z,100644.94
2023-05-04T13:09:20.681Z,100631.19
2023-05-04T13:14:17.001Z,100617.75
2023-05-04T13:19:13.357Z,100616.38
2023-05-04T13:24:11.241Z,100610.41
2023-05-04T13:29:07.738Z,100599.56
2023-05-04T13:34:04.316Z,100601.88
2023-05-04T13:39:00.731Z,100587.25
2023-05-04T13:43:57.320Z,100594.72
2023-05-04T13:48:55.713Z,100594.75
2023-05-04T13:53:53.268Z,100585.84
2023-05-04T13:58:49.786Z,100579.25
2023-05-04T14:03:46.630Z,100564.38
2023-05-04T14:08:43.009Z,100551.66
2023-05-04T14:13:39.347Z,100548.44
2023-05-04T14:18:35.695Z,100539.22
2023-05-04T14:23:32.023Z,100523.78
2023-05-04T14:28:28.456Z,100522.81
2023-05-04T14:33:24.909Z,100508.09
2023-05-04T14:38:21.277Z,100493.28
2023-05-04T14:43:17.690Z,100486.25
2023-05-04T14:48:14.383Z,100482.88
2023-05-04T14:53:10.951Z,100472.50
2023-05-04T14:58:10.580Z,100458.72
2023-05-04T15:03:07.765Z,100458.59
2023-05-04T15:08:04.368Z,100446.16
2023-05-04T15:13:01.627Z,100443.81
2023-05-04T15:17:58.162Z,100433.78
2023-05-04T15:22:54.578Z,100437.16
2023-05-04T15:27:50.950Z,100434.09
2023-05-04T15:32:48.221Z,100442.25
2023-05-04T15:37:44.533Z,100422.84
2023-05-04T15:42:41.193Z,100423.69
2023-05-04T15:47:37.782Z,100416.16
2023-05-04T15:52:34.459Z,100414.06
2023-05-04T15:57:30.815Z,100415.53
2023-05-04T16:02:27.816Z,100398.75
2023-05-04T16:07:24.624Z,100395.03
2023-05-04T16:12:21.342Z,100389.78
2023-05-04T16:17:17.794Z,100379.75
2023-05-04T16:22:14.687Z,100382.69
2023-05-04T16:27:11.043Z,100378.25
2023-05-04T16:32:08.285Z,100375.44
2023-05-04T16:37:04.663Z,100369.97
2023-05-04T16:42:02.282Z,100366.56
2023-05-04T16:46:59.691Z,100356.38
2023-05-04T16:51:56.191Z,100354.00
2023-05-04T16:56:52.776Z,100349.66
2023-05-04T17:01:49.301Z,100349.19
2023-05-04T17:06:45.953Z,100352.84
2023-05-04T17:11:42.406Z,100359.22
2023-05-04T17:16:39.128Z,100358.09
2023-05-04T17:21:35.756Z,100356.75
2023-05-04T17:26:32.162Z,100352.56
2023-05-04T17:31:28.694Z,100356.44
2023-05-04T17:36:25.276Z,100371.13
2023-05-04T17:41:21.768Z,100376.06
2023-05-04T17:46:18.226Z,100364.53
2023-05-04T17:51:15.137Z,100369.56
2023-05-04T17:56:11.622Z,100372.59
2023-05-04T18:01:08.045Z,100377.25
2023-05-04T18:06:06.177Z,100381.97
2023-05-04T18:11:02.570Z,100382.81
2023-05-04T18:15:58.995Z,100393.25
2023-05-04T18:20:58.596Z,100397.78
2023-05-04T18:25:54.938Z,100404.06
2023-05-04T18:30:51.426Z,100397.69
2023-05-04T18:35:47.868Z,100402.03
2023-05-04T18:40:44.357Z,100405.34
2023-05-04T18:45:40.759Z,100411.38
2023-05-04T18:50:37.536Z,100427.13
2023-05-04T18:55:33.983Z,100422.50
2023-05-04T19:00:30.564Z,100418.63
2023-05-04T19:05:26.973Z,100416.16
2023-05-04T19:10:23.345Z,100420.63
2023-05-04T19:15:21.224Z,100417.94
2023-05-04T19:20:19.312Z,100433.69
2023-05-04T19:25:27.074Z,100426.06
2023-05-04T19:30:29.829Z,100430.84
2023-05-04T19:35:26.851Z,100425.28
2023-05-04T19:40:23.532Z,100425.28
2023-05-04T19:45:20.005Z,100417.69
2023-05-04T19:50:16.893Z,100426.78
2023-05-04T19:55:13.473Z,100416.56
2023-05-04T20:00:10.775Z,100416.88
2023-05-04T20:05:07.642Z,100423.34
2023-05-04T20:10:05.324Z,100420.03
2023-05-04T20:15:01.920Z,100416.69
2023-05-04T20:19:58.299Z,100426.03
2023-05-04T20:24:54.957Z,100431.41
2023-05-04T20:29:51.439Z,100423.56
2023-05-04T20:34:47.811Z,100412.38
2023-05-04T20:39:44.187Z,100415.34
2023-05-04T20:44:40.550Z,100409.69
2023-05-04T20:49:36.938Z,100401.91
2023-05-04T20:54:33.451Z,100406.38
2023-05-04T20:59:29.833Z,100399.19
2023-05-04T21:04:26.333Z,100394.28
2023-05-04T21:09:22.721Z,100390.59
2023-05-04T21:14:19.442Z,100378.06
2023-05-04T21:19:16.481Z,100373.69
2023-05-04T21:24:13.617Z,100368.94
2023-05-04T21:29:13.297Z,100364.88
2023-05-04T21:34:10.300Z,100375.00
2023-05-04T21:39:06.863Z,100362.22
2023-05-04T21:44:03.472Z,100363.81
2023-05-04T21:48:59.843Z,100365.41
2023-05-04T21:53:56.240Z,100366.25
2023-05-04T21:58:52.892Z,100365.31
2023-05-04T22:03:49.345Z,100354.78
2023-05-04T22:08:45.765Z,100360.28
2023-05-04T22:13:42.097Z,100352.25
2023-05-04T22:18:38.453Z,100361.00
2023-05-04T22:23:34.820Z,100364.00
2023-05-04T22:28:31.190Z,100352.75
2023-05-04T22:33:27.625Z,100363.31
2023-05-04T22:38:24.016Z,100357.72
2023-05-04T22:43:20.393Z,100356.38
2023-05-04T22:48:16.813Z,100348.22
2023-05-04T22:53:14.673Z,100356.25
2023-05-04T22:58:11.220Z,100349.34
2023-05-04T23:03:08.041Z,100354.81
2023-05-04T23:08:04.817Z,100363.66
2023-05-04T23:13:01.307Z,100357.47
2023-05-04T23:17:57.804Z,100356.34
2023-05-04T23:22:54.236Z,100349.56
2023-05-04T23:27:50.772Z,100351.50
2023-05-04T23:32:47.283Z,100355.63
2023-05-04T23:37:43.735Z,100348.25
2023-05-04T23:42:40.100Z,100338.06
2023-05-04T23:47:36.573Z,100336.66
2023-05-04T23:52:33.069Z,100324.09
2023-05-04T23:57:29.778Z,100324.09
